Time;durP1;ratioP1;P1;durP2;ratioP2;P2;SDS_P1;SDS_P2;PMS_P1;PMS_P2;Temp;Humidity;BMP_temperature;BMP_pressure;BME280_temperature;BME280_humidity;BME280_pressure;Samples;Min_cycle;Max_cycle;Signal;HPM_P1;HPM_P2
2023/10/02 00:01:23;;;;;;;21.70;9.88;;;11.60;99.90;;;;;;4933428;29;20113;-83
2023/10/02 00:04:15;;;;;;;19.65;8.82;;;11.50;99.90;;;;;;4933681;29;20025;-83
2023/10/02 00:06:36;;;;;;;22.40;10.05;;;11.50;99.90;;;;;;4934479;29;20432;-83
2023/10/02 00:09:04;;;;;;;18.38;9.48;;;11.50;99.90;;;;;;4934106;29;20535;-83
2023/10/02 00:11:35;;;;;;;17.35;8.63;;;11.40;99.90;;;;;;4931627;29;20073;-83
2023/10/02 00:14:19;;;;;;;20.33;8.98;;;11.40;99.90;;;;;;4933319;29;20029;-84
2023/10/02 00:16:59;;;;;;;18.27;8.52;;;11.40;99.90;;;;;;4934251;29;20034;-83
2023/10/02 00:19:29;;;;;;;21.25;8.65;;;11.30;99.90;;;;;;4932008;29;21006;-83
2023/10/02 00:22:08;;;;;;;19.50;8.90;;;11.30;99.90;;;;;;4933417;29;20027;-83
2023/10/02 00:24:39;;;;;;;19.85;9.68;;;11.30;99.90;;;;;;4933643;29;20024;-83
2023/10/02 00:27:06;;;;;;;19.05;9.55;;;11.20;99.90;;;;;;4915813;29;20056;-83
2023/10/02 00:29:32;;;;;;;22.30;9.98;;;11.20;99.90;;;;;;4933102;29;20038;-83
2023/10/02 00:31:59;;;;;;;15.90;8.48;;;11.20;99.90;;;;;;4934735;29;20035;-83
2023/10/02 00:34:31;;;;;;;18.10;9.13;;;11.20;99.90;;;;;;4933698;29;20031;-83
2023/10/02 00:37:08;;;;;;;20.88;9.27;;;11.20;99.90;;;;;;4935842;29;20045;-83
2023/10/02 00:39:35;;;;;;;17.95;8.30;;;11.20;99.90;;;;;;4937268;29;20023;-83
2023/10/02 00:42:17;;;;;;;19.75;9.52;;;11.10;99.90;;;;;;4938364;29;20049;-83
2023/10/02 00:44:52;;;;;;;20.73;9.43;;;11.10;99.90;;;;;;4950465;29;20038;-82
2023/10/02 00:47:45;;;;;;;17.40;8.70;;;11.10;99.90;;;;;;4956424;28;20534;-83
2023/10/02 00:50:16;;;;;;;18.60;9.13;;;11.10;99.90;;;;;;4948232;29;20036;-83
2023/10/02 00:52:50;;;;;;;18.38;8.88;;;11.10;99.90;;;;;;4931720;29;20036;-83
2023/10/02 00:55:20;;;;;;;17.10;8.90;;;11.00;99.90;;;;;;4931373;29;20125;-83
2023/10/02 00:57:50;;;;;;;16.85;8.30;;;11.00;99.90;;;;;;4932990;29;20055;-83
2023/10/02 01:00:21;;;;;;;17.33;8.77;;;11.00;99.90;;;;;;4932225;29;20044;-83
2023/10/02 01:02:49;;;;;;;19.00;8.88;;;11.00;99.90;;;;;;4933250;29;20063;-83
2023/10/02 01:05:17;;;;;;;20.48;9.27;;;11.00;99.90;;;;;;4933210;29;21680;-83
2023/10/02 01:07:46;;;;;;;16.33;8.82;;;10.90;99.90;;;;;;4932029;29;20024;-82
2023/10/02 01:10:18;;;;;;;18.35;8.85;;;11.00;99.90;;;;;;4933795;29;20024;-82
2023/10/02 01:12:53;;;;;;;19.63;9.73;;;10.90;99.90;;;;;;4933406;29;20063;-83
2023/10/02 01:15:20;;;;;;;18.02;9.05;;;10.90;99.90;;;;;;4932451;29;20030;-82
2023/10/02 01:17:48;;;;;;;20.42;9.43;;;10.90;99.90;;;;;;4933616;29;20035;-82
2023/10/02 01:23:17;;;;;;;19.40;8.70;;;10.90;99.90;;;;;;4936276;29;20137;-83
2023/10/02 01:25:49;;;;;;;17.70;8.32;;;10.90;99.90;;;;;;4933592;29;20551;-82
2023/10/02 01:28:15;;;;;;;19.27;9.20;;;10.90;99.90;;;;;;4935247;29;20118;-82
2023/10/02 01:30:47;;;;;;;21.60;10.40;;;10.90;99.90;;;;;;4935239;29;20542;-82
2023/10/02 01:33:26;;;;;;;18.33;8.73;;;10.90;99.90;;;;;;4934856;29;20341;-83
2023/10/02 01:35:56;;;;;;;21.25;9.80;;;10.90;99.90;;;;;;4933646;29;20043;-82
2023/10/02 01:38:22;;;;;;;20.60;9.38;;;10.90;99.90;;;;;;4936456;29;20495;-82
2023/10/02 01:40:53;;;;;;;17.30;8.40;;;10.90;99.90;;;;;;4937409;29;20147;-82
2023/10/02 01:43:22;;;;;;;20.70;9.45;;;10.90;99.90;;;;;;4938653;29;20062;-83
2023/10/02 01:45:48;;;;;;;18.33;8.77;;;10.90;99.90;;;;;;4938436;29;20202;-82
2023/10/02 01:51:20;;;;;;;19.75;9.93;;;10.80;99.90;;;;;;4938091;29;20095;-83
2023/10/02 01:53:48;;;;;;;21.00;9.32;;;10.80;99.90;;;;;;4937812;29;20039;-83
2023/10/02 01:56:16;;;;;;;18.95;8.52;;;10.80;99.90;;;;;;4935818;29;20107;-83
2023/10/02 01:58:44;;;;;;;20.02;9.27;;;10.80;99.90;;;;;;4937558;29;20041;-82
2023/10/02 02:01:10;;;;;;;19.95;9.35;;;10.70;99.90;;;;;;4937036;29;20026;-82
2023/10/02 02:03:41;;;;;;;17.50;8.82;;;10.70;99.90;;;;;;4937467;29;20499;-83
2023/10/02 02:06:10;;;;;;;19.02;8.52;;;10.70;99.90;;;;;;4936295;29;20051;-83
2023/10/02 02:08:43;;;;;;;19.40;8.85;;;10.70;99.90;;;;;;4937962;29;20027;-82
2023/10/02 02:11:16;;;;;;;18.45;9.18;;;10.70;99.90;;;;;;4936989;29;20031;-82
2023/10/02 02:13:47;;;;;;;20.02;9.48;;;10.60;99.90;;;;;;4936803;29;20083;-82
2023/10/02 02:16:21;;;;;;;18.00;8.63;;;10.60;99.90;;;;;;4936830;29;20051;-82
2023/10/02 02:18:51;;;;;;;18.50;8.57;;;10.60;99.90;;;;;;4937202;29;20052;-83
2023/10/02 02:21:19;;;;;;;15.00;7.95;;;10.60;99.90;;;;;;4936281;29;20036;-82
2023/10/02 02:23:45;;;;;;;18.60;8.38;;;10.50;99.90;;;;;;4919448;29;20042;-82
2023/10/02 02:26:21;;;;;;;17.10;8.52;;;10.50;99.90;;;;;;4940599;29;20055;-82
2023/10/02 02:28:49;;;;;;;20.70;9.68;;;10.50;99.90;;;;;;4939618;29;20486;-82
2023/10/02 02:31:30;;;;;;;18.35;8.65;;;10.50;99.90;;;;;;4940115;29;20102;-82
2023/10/02 02:34:14;;;;;;;17.90;8.90;;;10.40;99.90;;;;;;4938045;29;20445;-82
2023/10/02 02:36:46;;;;;;;18.70;8.70;;;10.40;99.90;;;;;;4939431;29;21363;-83
2023/10/02 02:39:15;;;;;;;18.08;8.60;;;10.40;99.90;;;;;;4937235;29;20027;-82
2023/10/02 02:42:08;;;;;;;17.25;8.75;;;10.40;99.90;;;;;;4939061;29;20016;-82
2023/10/02 02:44:43;;;;;;;18.38;8.98;;;10.40;99.90;;;;;;4937547;29;20087;-82
2023/10/02 02:47:09;;;;;;;21.33;9.50;;;10.30;99.90;;;;;;4937620;29;20384;-82
2023/10/02 02:49:50;;;;;;;18.95;8.95;;;10.40;99.90;;;;;;4937385;28;20057;-82
2023/10/02 02:52:35;;;;;;;21.02;9.35;;;10.30;99.90;;;;;;4936329;29;20020;-82
2023/10/02 02:55:12;;;;;;;19.13;9.70;;;10.30;99.90;;;;;;4934861;29;20031;-82
2023/10/02 02:57:39;;;;;;;17.88;9.05;;;10.30;99.90;;;;;;4936806;29;20462;-83
2023/10/02 03:02:54;;;;;;;18.15;8.75;;;10.30;99.90;;;;;;4936055;29;20042;-82
2023/10/02 03:05:22;;;;;;;17.55;8.68;;;10.30;99.90;;;;;;4935760;29;20043;-82
2023/10/02 03:07:49;;;;;;;17.40;9.85;;;10.30;99.90;;;;;;4935002;29;20106;-83
2023/10/02 03:10:19;;;;;;;19.48;9.32;;;10.30;99.90;;;;;;4934928;29;20042;-83
2023/10/02 03:12:45;;;;;;;20.17;10.02;;;10.30;99.90;;;;;;4936186;29;20538;-82
2023/10/02 03:15:13;;;;;;;19.70;9.10;;;10.30;99.90;;;;;;4935397;29;20032;-82
2023/10/02 03:17:41;;;;;;;20.83;8.93;;;10.30;99.90;;;;;;4934078;29;20088;-83
2023/10/02 03:20:24;;;;;;;22.00;9.65;;;10.20;99.90;;;;;;4936700;29;20043;-83
2023/10/02 03:22:55;;;;;;;19.73;9.35;;;10.20;99.90;;;;;;4936005;29;20032;-83
2023/10/02 03:25:47;;;;;;;18.98;9.25;;;10.20;99.90;;;;;;4935423;29;20023;-83
2023/10/02 03:28:27;;;;;;;18.73;9.27;;;10.20;99.90;;;;;;4936447;29;20147;-83
2023/10/02 03:30:57;;;;;;;20.45;9.07;;;10.20;99.90;;;;;;4938528;29;20126;-83
2023/10/02 03:33:25;;;;;;;19.92;9.32;;;10.10;99.90;;;;;;4934432;29;20043;-83
2023/10/02 03:36:10;;;;;;;21.20;9.55;;;10.10;99.90;;;;;;4938021;29;20087;-83
2023/10/02 03:38:42;;;;;;;23.25;9.25;;;10.10;99.90;;;;;;4944281;29;20367;-82
2023/10/02 03:41:09;;;;;;;19.13;8.50;;;10.10;99.90;;;;;;4939360;29;20034;-82
2023/10/02 03:43:35;;;;;;;17.60;8.77;;;10.10;99.90;;;;;;4940076;29;20027;-83
2023/10/02 03:46:13;;;;;;;21.10;9.65;;;10.10;99.90;;;;;;4942518;29;20032;-83
2023/10/02 03:48:39;;;;;;;18.35;9.75;;;10.10;99.90;;;;;;4951559;29;20806;-84
2023/10/02 03:51:07;;;;;;;19.40;9.63;;;10.10;99.90;;;;;;4955751;29;20051;-83
2023/10/02 03:53:36;;;;;;;16.70;8.68;;;10.10;99.90;;;;;;4933154;29;20042;-83
2023/10/02 03:58:53;;;;;;;18.88;9.10;;;10.10;99.90;;;;;;4932468;29;20055;-84
2023/10/02 04:01:28;;;;;;;20.85;9.30;;;10.10;99.90;;;;;;4934546;28;20054;-83
2023/10/02 04:06:42;;;;;;;18.53;8.80;;;10.00;99.90;;;;;;4933904;29;20094;-81
2023/10/02 04:11:48;;;;;;;18.45;7.97;;;10.00;99.90;;;;;;4935669;29;20901;-81
2023/10/02 04:14:17;;;;;;;20.20;9.43;;;10.00;99.90;;;;;;4934239;29;20038;-81
2023/10/02 04:16:51;;;;;;;20.10;8.45;;;9.90;99.90;;;;;;4934702;29;21384;-82
2023/10/02 04:19:24;;;;;;;17.95;8.75;;;9.90;99.90;;;;;;4934310;29;20611;-81
2023/10/02 04:21:56;;;;;;;18.80;8.80;;;9.90;99.90;;;;;;4932714;29;21054;-81
2023/10/02 04:24:26;;;;;;;19.52;8.52;;;9.90;99.90;;;;;;4932067;29;20036;-81
2023/10/02 04:27:14;;;;;;;22.85;9.80;;;9.90;99.90;;;;;;4929915;29;20710;-80
2023/10/02 04:29:48;;;;;;;21.08;9.65;;;9.80;99.90;;;;;;4931116;29;20035;-83
2023/10/02 04:32:15;;;;;;;20.92;9.82;;;9.80;99.90;;;;;;4929795;29;20946;-78
2023/10/02 04:34:50;;;;;;;21.90;9.70;;;9.80;99.90;;;;;;4927965;29;20067;-78
2023/10/02 04:37:19;;;;;;;;;;;9.70;99.90;;;;;;4928701;29;20042;-80
2023/10/02 04:42:57;;;;;;;22.53;10.73;;;9.70;99.90;;;;;;4930121;29;20091;-81
2023/10/02 04:45:25;;;;;;;23.02;10.38;;;9.70;99.90;;;;;;4933162;29;20022;-81
2023/10/02 04:47:54;;;;;;;24.13;10.43;;;9.70;99.90;;;;;;4933537;29;20668;-81
2023/10/02 04:52:56;;;;;;;25.23;11.13;;;9.70;99.90;;;;;;4932856;29;21519;-82
2023/10/02 04:55:31;;;;;;;18.73;9.53;;;9.70;99.90;;;;;;4929223;29;20024;-82
2023/10/02 04:58:17;;;;;;;;;;;9.70;99.90;;;;;;4932664;29;20163;-82
2023/10/02 05:03:29;;;;;;;20.53;10.10;;;9.70;99.90;;;;;;4928548;29;20269;-79
2023/10/02 05:05:58;;;;;;;22.70;9.43;;;9.60;99.90;;;;;;4930091;29;20710;-79
2023/10/02 05:08:33;;;;;;;18.87;9.20;;;9.60;99.90;;;;;;4928673;29;20556;-84
2023/10/02 05:11:06;;;;;;;22.73;8.40;;;9.60;99.90;;;;;;4932192;29;20082;-82
2023/10/02 05:13:53;;;;;;;20.03;9.33;;;9.60;99.90;;;;;;4933312;29;20043;-81
2023/10/02 05:16:38;;;;;;;24.13;9.50;;;9.60;99.90;;;;;;4935711;29;20110;-81
2023/10/02 05:19:06;;;;;;;21.67;9.00;;;9.60;99.90;;;;;;4934840;29;20460;-81
2023/10/02 05:21:38;;;;;;;20.98;8.63;;;9.60;99.90;;;;;;4935660;29;20043;-81
2023/10/02 05:24:04;;;;;;;25.03;10.20;;;9.50;99.90;;;;;;4935533;29;20114;-82
2023/10/02 05:26:34;;;;;;;27.27;10.03;;;9.50;99.90;;;;;;4933205;29;21356;-84
2023/10/02 05:29:08;;;;;;;24.10;11.03;;;9.50;99.90;;;;;;4933987;29;20031;-83
2023/10/02 05:31:40;;;;;;;25.13;12.20;;;9.50;99.90;;;;;;4930218;29;20031;-74
2023/10/02 05:34:24;;;;;;;26.63;12.17;;;9.50;99.90;;;;;;4929092;29;20043;-74
2023/10/02 05:39:39;;;;;;;26.90;11.57;;;9.40;99.90;;;;;;4930172;29;20499;-73
2023/10/02 05:42:13;;;;;;;26.03;11.20;;;9.50;99.90;;;;;;4930426;29;20036;-73
2023/10/02 05:44:39;;;;;;;23.67;10.33;;;9.40;99.90;;;;;;4929384;29;20038;-73
2023/10/02 05:47:05;;;;;;;20.93;10.00;;;9.50;99.90;;;;;;4930212;29;20024;-73
2023/10/02 05:49:43;;;;;;;24.73;11.00;;;9.50;99.90;;;;;;4929509;29;20028;-74
2023/10/02 05:52:09;;;;;;;19.63;10.15;;;9.60;99.90;;;;;;4931141;29;20035;-84
2023/10/02 05:54:42;;;;;;;22.33;11.07;;;9.60;99.90;;;;;;4933486;29;20047;-84
2023/10/02 05:57:12;;;;;;;22.97;10.93;;;9.70;99.90;;;;;;4936934;29;20019;-85
2023/10/02 05:59:48;;;;;;;23.80;10.93;;;9.70;99.90;;;;;;4934764;29;20031;-85
2023/10/02 06:02:15;;;;;;;21.25;10.68;;;9.80;99.90;;;;;;4937183;29;20151;-85
2023/10/02 06:04:48;;;;;;;23.47;11.23;;;9.80;99.90;;;;;;4936534;29;20038;-84
2023/10/02 06:07:19;;;;;;;25.50;11.43;;;9.90;99.90;;;;;;4934868;29;20095;-84
2023/10/02 06:09:46;;;;;;;25.63;11.87;;;10.00;99.90;;;;;;4935114;29;20498;-84
2023/10/02 06:12:12;;;;;;;25.30;11.37;;;10.00;99.90;;;;;;4933779;29;20035;-85
2023/10/02 06:14:45;;;;;;;23.85;11.63;;;10.10;99.90;;;;;;4934893;29;20031;-84
2023/10/02 06:17:16;;;;;;;26.55;11.23;;;10.20;99.90;;;;;;4934901;29;20122;-84
2023/10/02 06:19:42;;;;;;;24.90;12.38;;;10.30;99.90;;;;;;4938164;29;20023;-84
2023/10/02 06:22:09;;;;;;;27.55;11.70;;;10.30;99.90;;;;;;4938118;29;20035;-85
2023/10/02 06:24:35;;;;;;;22.23;10.75;;;10.40;99.90;;;;;;4935779;29;20038;-84
2023/10/02 06:27:17;;;;;;;22.77;10.75;;;10.60;99.90;;;;;;4937146;29;20024;-84
2023/10/02 06:29:49;;;;;;;21.52;10.68;;;10.60;99.90;;;;;;4933102;29;20032;-86
2023/10/02 06:32:22;;;;;;;22.33;10.55;;;10.70;99.90;;;;;;4932124;29;20031;-84
2023/10/02 06:34:50;;;;;;;19.13;9.10;;;10.80;99.90;;;;;;4933613;29;20159;-85
2023/10/02 06:37:19;;;;;;;21.90;10.50;;;10.90;99.90;;;;;;4938138;29;20046;-85
2023/10/02 06:40:14;;;;;;;24.73;9.95;;;11.00;99.90;;;;;;4937658;29;20054;-85
2023/10/02 06:42:51;;;;;;;26.23;10.90;;;11.10;99.90;;;;;;4937076;29;20111;-84
2023/10/02 06:45:20;;;;;;;21.20;10.35;;;11.20;99.90;;;;;;4937671;29;20115;-84
2023/10/02 06:47:48;;;;;;;21.38;10.13;;;11.30;99.90;;;;;;4940164;29;20035;-86
2023/10/02 06:50:35;;;;;;;22.73;11.65;;;11.40;99.90;;;;;;4944926;29;20617;-85
2023/10/02 06:53:01;;;;;;;23.63;11.98;;;11.50;99.90;;;;;;4951636;29;20028;-86
2023/10/02 06:55:29;;;;;;;25.10;11.20;;;11.60;99.90;;;;;;4954132;29;20032;-84
2023/10/02 06:57:56;;;;;;;26.73;11.13;;;11.70;99.90;;;;;;4934368;29;20067;-85
2023/10/02 07:00:23;;;;;;;28.92;12.95;;;11.90;99.90;;;;;;4934061;29;20039;-84
2023/10/02 07:02:58;;;;;;;29.48;12.30;;;12.00;99.90;;;;;;4931347;29;20040;-85
2023/10/02 07:05:32;;;;;;;24.88;12.73;;;12.10;99.90;;;;;;4930727;29;20550;-85
2023/10/02 07:08:01;;;;;;;28.92;12.10;;;12.20;99.90;;;;;;4931994;29;20723;-86
2023/10/02 07:10:42;;;;;;;29.10;13.77;;;12.30;99.90;;;;;;4931833;29;20051;-86
2023/10/02 07:13:20;;;;;;;26.20;12.55;;;12.50;99.90;;;;;;4927764;29;20024;-85
2023/10/02 07:15:55;;;;;;;33.33;12.95;;;12.60;99.90;;;;;;4928578;29;20487;-85
2023/10/02 07:18:21;;;;;;;;;;;12.80;99.90;;;;;;4929685;29;20032;-86
2023/10/02 07:20:53;;;;;;;28.33;13.25;;;13.00;99.90;;;;;;4928481;29;20385;-87
2023/10/02 07:23:19;;;;;;;29.60;13.07;;;13.10;99.90;;;;;;4929483;29;20775;-86
2023/10/02 07:25:50;;;;;;;27.98;13.70;;;13.20;99.90;;;;;;4928505;29;20023;-87
2023/10/02 07:28:21;;;;;;;27.55;13.63;;;13.40;99.90;;;;;;4928813;29;20062;-86
2023/10/02 07:30:50;;;;;;;29.88;13.57;;;13.50;99.90;;;;;;4928223;29;20115;-86
2023/10/02 07:33:18;;;;;;;31.73;13.68;;;13.70;99.90;;;;;;4928636;29;21494;-85
2023/10/02 07:35:52;;;;;;;34.10;14.70;;;13.80;99.90;;;;;;4928508;29;20035;-86
2023/10/02 07:38:22;;;;;;;32.58;13.55;;;14.00;99.90;;;;;;4927631;29;20035;-86
2023/10/02 07:40:48;;;;;;;28.83;14.15;;;14.10;99.90;;;;;;4928562;29;20032;-86
2023/10/02 07:43:20;;;;;;;30.83;14.25;;;14.30;99.90;;;;;;4927909;29;20027;-86
2023/10/02 07:46:06;;;;;;;30.67;14.32;;;14.50;99.90;;;;;;4928030;29;20027;-86
2023/10/02 07:48:35;;;;;;;34.45;14.68;;;14.60;99.90;;;;;;4929194;29;20514;-86
2023/10/02 07:51:01;;;;;;;36.95;16.23;;;14.80;99.90;;;;;;4929345;29;20051;-87
2023/10/02 07:53:39;;;;;;;36.42;16.50;;;14.90;99.90;;;;;;4926497;29;20039;-87
2023/10/02 07:56:14;;;;;;;31.23;14.68;;;15.10;99.90;;;;;;4926236;29;20027;-87
2023/10/02 07:58:41;;;;;;;32.28;14.98;;;15.20;99.90;;;;;;4928237;29;20035;-85
2023/10/02 08:01:11;;;;;;;31.77;14.90;;;15.30;99.90;;;;;;4927468;29;20437;-86
2023/10/02 08:03:49;;;;;;;31.02;14.45;;;15.50;99.90;;;;;;4927953;29;20046;-87
2023/10/02 08:06:21;;;;;;;32.75;15.60;;;15.60;99.90;;;;;;4928466;29;20030;-86
2023/10/02 08:09:35;;;;;;;34.72;15.93;;;15.70;99.90;;;;;;4926533;29;20066;-87
2023/10/02 08:12:01;;;;;;;34.00;15.60;;;15.80;99.90;;;;;;4928501;29;20027;-86
2023/10/02 08:14:38;;;;;;;31.92;15.40;;;16.10;99.90;;;;;;4928311;29;20075;-86
2023/10/02 08:17:22;;;;;;;32.45;15.20;;;16.20;99.90;;;;;;4928177;29;20039;-86
2023/10/02 08:19:54;;;;;;;34.17;15.23;;;16.40;99.90;;;;;;4928333;29;20031;-86
2023/10/02 08:22:23;;;;;;;32.75;15.48;;;16.60;99.90;;;;;;4929069;29;20023;-87
2023/10/02 08:24:49;;;;;;;30.80;14.52;;;16.80;99.90;;;;;;4926607;29;20113;-86
2023/10/02 08:27:16;;;;;;;30.75;14.55;;;17.00;99.90;;;;;;4928789;29;20024;-86
2023/10/02 08:29:43;;;;;;;31.83;15.50;;;17.10;99.90;;;;;;4928572;29;20506;-86
2023/10/02 08:32:08;;;;;;;31.52;15.07;;;17.30;99.90;;;;;;4930566;29;20387;-88
2023/10/02 08:34:35;;;;;;;31.80;15.15;;;17.40;99.90;;;;;;4937954;29;20043;-88
2023/10/02 08:37:12;;;;;;;30.63;15.15;;;17.70;99.90;;;;;;4937618;29;21268;-87
2023/10/02 08:39:39;;;;;;;31.58;15.20;;;17.90;99.90;;;;;;4930444;29;20492;-87
2023/10/02 08:42:11;;;;;;;30.38;14.93;;;18.20;99.90;;;;;;4927106;29;20062;-87
2023/10/02 08:44:40;;;;;;;35.92;15.40;;;18.50;99.90;;;;;;4928564;29;20042;-86
2023/10/02 08:47:24;;;;;;;30.48;15.43;;;18.70;99.90;;;;;;4929757;28;20027;-87
2023/10/02 08:49:49;;;;;;;34.03;15.60;;;18.90;99.90;;;;;;4931082;29;20042;-87
2023/10/02 08:52:15;;;;;;;36.40;17.40;;;19.10;99.90;;;;;;4933602;29;20040;-87
2023/10/02 08:54:44;;;;;;;38.00;16.92;;;19.30;99.90;;;;;;4933509;29;20118;-87
2023/10/02 08:57:10;;;;;;;41.97;18.75;;;19.40;99.90;;;;;;4933428;29;20052;-88
2023/10/02 08:59:40;;;;;;;39.95;18.23;;;19.50;99.90;;;;;;4935140;29;20023;-86
2023/10/02 09:02:16;;;;;;;38.75;17.60;;;19.60;99.90;;;;;;4939366;29;20040;-87
2023/10/02 09:05:06;;;;;;;36.60;17.58;;;19.70;99.90;;;;;;4934535;29;20460;-87
2023/10/02 09:10:25;;;;;;;34.33;16.55;;;19.90;99.90;;;;;;4930916;29;20072;-88
2023/10/02 09:13:09;;;;;;;34.92;16.27;;;20.00;99.90;;;;;;4931536;29;21426;-87
2023/10/02 09:15:35;;;;;;;36.63;17.58;;;20.10;99.90;;;;;;4929961;29;20169;-87
2023/10/02 09:18:19;;;;;;;35.50;16.83;;;20.10;99.90;;;;;;4931984;29;20084;-87
2023/10/02 09:21:13;;;;;;;37.72;17.77;;;20.20;99.90;;;;;;4931305;29;20438;-87
2023/10/02 09:23:49;;;;;;;40.75;18.10;;;20.30;99.90;;;;;;4930106;29;20031;-87
2023/10/02 09:26:23;;;;;;;42.13;18.63;;;20.50;99.90;;;;;;4931502;29;20115;-87
2023/10/02 09:28:59;;;;;;;35.38;17.35;;;20.60;99.90;;;;;;4931807;29;20031;-88
2023/10/02 09:31:30;;;;;;;43.67;18.55;;;20.70;99.90;;;;;;4932595;29;20063;-87
2023/10/02 09:33:56;;;;;;;39.72;19.25;;;20.80;99.90;;;;;;4932042;29;20036;-87
2023/10/02 09:36:36;;;;;;;36.95;17.92;;;20.90;99.90;;;;;;4934266;29;20143;-87
2023/10/02 09:39:31;;;;;;;38.80;18.35;;;21.00;99.90;;;;;;4932173;29;20043;-88
2023/10/02 09:42:00;;;;;;;42.45;19.83;;;21.20;99.90;;;;;;4934133;29;20837;-87
2023/10/02 09:44:27;;;;;;;40.05;19.33;;;21.30;99.90;;;;;;4938735;29;20032;-87
2023/10/02 09:46:53;;;;;;;42.60;20.15;;;21.50;99.90;;;;;;4942912;29;20027;-87
2023/10/02 09:49:29;;;;;;;41.28;19.27;;;21.50;99.90;;;;;;4948697;29;20111;-87
2023/10/02 09:52:23;;;;;;;42.63;19.80;;;21.70;99.90;;;;;;4949820;29;20035;-87
2023/10/02 09:55:15;;;;;;;43.78;20.38;;;21.70;99.90;;;;;;4931860;29;20042;-88
2023/10/02 09:57:49;;;;;;;44.85;20.70;;;21.80;99.90;;;;;;4931603;29;20100;-88
2023/10/02 10:00:36;;;;;;;51.33;22.38;;;22.00;99.90;;;;;;4931119;29;20097;-87
2023/10/02 10:03:22;;;;;;;49.53;23.63;;;22.00;99.90;;;;;;4930164;29;20042;-87
2023/10/02 10:06:06;;;;;;;45.60;22.13;;;22.20;99.90;;;;;;4923579;29;20042;-87
2023/10/02 10:11:45;;;;;;;49.00;23.25;;;22.50;99.90;;;;;;4931024;29;20043;-87
2023/10/02 10:14:39;;;;;;;46.47;22.08;;;22.50;99.90;;;;;;4933364;29;20048;-88
2023/10/02 10:17:49;;;;;;;50.63;24.13;;;22.50;99.90;;;;;;4932201;29;20030;-88
2023/10/02 10:20:23;;;;;;;44.13;22.15;;;22.50;99.90;;;;;;4917192;29;20047;-87
2023/10/02 10:22:55;;;;;;;45.08;21.40;;;22.50;99.90;;;;;;4930918;29;21376;-90
2023/10/02 10:27:59;;;;;;;45.90;21.70;;;22.70;99.90;;;;;;4929913;29;20518;-88
2023/10/02 10:30:25;;;;;;;46.13;21.40;;;22.60;99.90;;;;;;4931174;29;20059;-87
2023/10/02 10:35:38;;;;;;;43.22;21.52;;;22.80;99.90;;;;;;4928375;29;20078;-87
2023/10/02 10:38:36;;;;;;;45.40;21.30;;;23.00;99.90;;;;;;4928784;29;20039;-88
2023/10/02 10:41:09;;;;;;;44.78;21.73;;;23.20;99.90;;;;;;4930291;29;20221;-87
2023/10/02 10:43:55;;;;;;;47.75;21.98;;;23.40;99.90;;;;;;4928615;29;20036;-87
2023/10/02 10:46:27;;;;;;;44.08;22.35;;;23.60;99.90;;;;;;4929671;29;20031;-87
2023/10/02 10:49:07;;;;;;;43.95;21.75;;;23.70;99.90;;;;;;4930153;29;20066;-88
2023/10/02 10:51:39;;;;;;;42.97;21.08;;;23.80;99.90;;;;;;4929851;29;20083;-87
2023/10/02 10:54:13;;;;;;;44.30;22.13;;;24.00;99.90;;;;;;4928277;29;20051;-88
2023/10/02 10:56:46;;;;;;;42.37;22.00;;;24.10;99.90;;;;;;4927884;29;20046;-88
2023/10/02 10:59:21;;;;;;;48.17;21.48;;;24.10;99.90;;;;;;4928883;29;20046;-88
2023/10/02 11:02:09;;;;;;;44.50;21.92;;;24.00;99.90;;;;;;4930457;29;20233;-87
2023/10/02 11:04:45;;;;;;;43.33;22.33;;;24.10;99.90;;;;;;4929599;29;20031;-87
2023/10/02 11:07:21;;;;;;;43.00;21.05;;;24.20;99.90;;;;;;4929313;29;20032;-88
2023/10/02 11:10:12;;;;;;;42.33;21.33;;;24.50;99.90;;;;;;4928613;29;20027;-87
2023/10/02 11:12:38;;;;;;;44.22;22.40;;;24.80;99.90;;;;;;4929433;29;20031;-87
2023/10/02 11:15:15;;;;;;;42.05;21.48;;;25.00;99.90;;;;;;4927411;29;20051;-88
2023/10/02 11:17:42;;;;;;;44.25;22.02;;;25.10;99.90;;;;;;4928381;29;20036;-87
2023/10/02 11:20:08;;;;;;;46.15;21.98;;;25.10;99.90;;;;;;4930156;29;20035;-88
2023/10/02 11:22:51;;;;;;;47.30;22.65;;;25.00;99.90;;;;;;4928298;29;20063;-87
2023/10/02 11:25:19;;;;;;;42.15;20.80;;;25.30;99.90;;;;;;4928261;29;20090;-88
2023/10/02 11:27:57;;;;;;;38.85;20.20;;;25.60;99.90;;;;;;4929608;29;20065;-87
2023/10/02 11:30:32;;;;;;;40.50;20.88;;;25.60;99.90;;;;;;4927655;29;20064;-88
2023/10/02 11:33:07;;;;;;;42.40;21.02;;;25.70;99.90;;;;;;5095452;27;20528;-88
2023/10/02 11:35:41;;;;;;;40.70;22.05;;;25.80;99.90;;;;;;5080430;28;20031;-87
2023/10/02 11:38:09;;;;;;;40.10;21.60;;;25.80;99.90;;;;;;5082299;28;20040;-88
2023/10/02 11:40:36;;;;;;;47.53;22.65;;;26.00;99.90;;;;;;5081011;28;20090;-86
2023/10/02 11:43:03;;;;;;;42.70;22.67;;;26.10;99.90;;;;;;5082160;28;20105;-88
2023/10/02 11:45:36;;;;;;;41.72;21.83;;;26.10;99.90;;;;;;5080236;28;20040;-88
2023/10/02 11:48:02;;;;;;;39.75;20.80;;;26.10;99.90;;;;;;5080728;28;20457;-87
2023/10/02 11:50:27;;;;;;;38.53;20.73;;;25.90;99.90;;;;;;5081742;28;20093;-87
2023/10/02 11:52:53;;;;;;;39.72;21.67;;;26.20;99.90;;;;;;5082317;28;20125;-87
2023/10/02 11:55:19;;;;;;;44.95;22.40;;;26.30;99.90;;;;;;5079201;28;20130;-88
2023/10/02 11:57:51;;;;;;;44.88;22.73;;;26.30;99.90;;;;;;5081066;28;20024;-89
2023/10/02 12:00:20;;;;;;;44.05;23.25;;;26.20;99.90;;;;;;5082747;28;20035;-88
2023/10/02 12:02:49;;;;;;;40.75;21.30;;;25.80;99.90;;;;;;5082152;28;20020;-87
2023/10/02 12:05:17;;;;;;;44.70;21.63;;;25.60;99.90;;;;;;5081303;28;20032;-88
2023/10/02 12:07:44;;;;;;;42.53;21.38;;;25.40;99.90;;;;;;5083732;28;20033;-87
2023/10/02 12:10:15;;;;;;;44.30;21.60;;;25.40;99.90;;;;;;5082989;28;20060;-87
2023/10/02 12:12:42;;;;;;;43.92;21.52;;;25.50;99.90;;;;;;5087055;28;20636;-88
2023/10/02 12:15:13;;;;;;;41.85;21.80;;;25.50;99.90;;;;;;5084836;28;20036;-87
2023/10/02 12:17:39;;;;;;;42.50;22.55;;;25.30;99.90;;;;;;5085509;28;21514;-88
2023/10/02 12:20:10;;;;;;;45.13;22.17;;;25.30;99.90;;;;;;5081592;28;20107;-87
2023/10/02 12:22:36;;;;;;;41.30;20.77;;;25.30;99.90;;;;;;5083003;28;20491;-87
2023/10/02 12:25:04;;;;;;;42.45;21.65;;;25.30;99.90;;;;;;5083781;28;20031;-87
2023/10/02 12:27:30;;;;;;;46.00;21.58;;;25.30;99.90;;;;;;5090923;28;20028;-87
2023/10/02 12:29:58;;;;;;;42.00;21.98;;;25.30;99.90;;;;;;5092749;28;20035;-87
2023/10/02 12:32:24;;;;;;;39.83;21.10;;;25.50;99.90;;;;;;5091434;28;20069;-88
2023/10/02 12:34:50;;;;;;;42.63;20.98;;;25.60;99.90;;;;;;5083337;28;20057;-88
2023/10/02 12:37:18;;;;;;;41.42;22.38;;;25.70;99.90;;;;;;5083216;28;20024;-87
2023/10/02 12:39:44;;;;;;;40.10;21.80;;;25.70;99.90;;;;;;5089295;28;20038;-87
2023/10/02 12:42:10;;;;;;;44.58;20.75;;;25.70;99.90;;;;;;5091529;28;20036;-89
2023/10/02 12:44:40;;;;;;;39.85;21.42;;;25.70;99.90;;;;;;5085669;28;20084;-89
2023/10/02 12:47:06;;;;;;;41.47;21.92;;;25.80;99.90;;;;;;5091664;28;20106;-88
2023/10/02 12:49:35;;;;;;;45.25;21.63;;;25.80;99.90;;;;;;5075557;28;20082;-87
2023/10/02 12:52:00;;;;;;;41.78;22.45;;;25.70;99.90;;;;;;5069112;28;20036;-87
2023/10/02 12:54:27;;;;;;;41.85;22.13;;;25.70;99.90;;;;;;5065429;28;20029;-87
2023/10/02 12:56:53;;;;;;;40.88;22.17;;;25.80;99.90;;;;;;5067604;28;20043;-87
2023/10/02 12:59:19;;;;;;;42.70;22.58;;;25.90;99.90;;;;;;5067153;28;20074;-87
2023/10/02 13:01:45;;;;;;;42.25;21.92;;;26.10;99.90;;;;;;5066753;28;20509;-87
2023/10/02 13:04:12;;;;;;;40.95;22.15;;;26.10;99.90;;;;;;5066604;28;20111;-87
2023/10/02 13:06:38;;;;;;;40.60;20.88;;;26.10;99.90;;;;;;5067077;28;20032;-87
2023/10/02 13:09:09;;;;;;;40.92;21.75;;;26.00;99.90;;;;;;5066555;28;20025;-88
2023/10/02 13:11:39;;;;;;;44.35;23.38;;;26.00;99.90;;;;;;5067572;28;20055;-87
2023/10/02 13:14:06;;;;;;;39.20;20.85;;;26.00;99.90;;;;;;5065978;28;21328;-87
2023/10/02 13:16:32;;;;;;;45.45;22.25;;;26.00;99.90;;;;;;5066599;28;20020;-87
2023/10/02 13:18:57;;;;;;;44.05;22.90;;;26.10;99.90;;;;;;5066443;28;20410;-87
2023/10/02 13:21:24;;;;;;;43.97;22.33;;;26.10;99.90;;;;;;5067395;28;20098;-87
2023/10/02 13:23:50;;;;;;;41.88;22.25;;;26.00;99.90;;;;;;5067280;28;20435;-87
2023/10/02 13:26:16;;;;;;;43.70;22.40;;;25.80;99.90;;;;;;5065160;28;20021;-87
2023/10/02 13:28:54;;;;;;;46.00;22.38;;;25.80;99.90;;;;;;5066301;28;20108;-88
2023/10/02 13:31:20;;;;;;;44.10;21.83;;;25.60;99.90;;;;;;5064074;28;20048;-87
2023/10/02 13:33:51;;;;;;;41.20;21.70;;;25.70;99.90;;;;;;5065494;28;20025;-88
2023/10/02 13:36:24;;;;;;;43.08;22.65;;;25.60;99.90;;;;;;5064200;28;20037;-87
2023/10/02 13:38:54;;;;;;;40.10;21.98;;;25.50;99.90;;;;;;5066119;28;20028;-89